Time;durP1;ratioP1;P1;durP2;ratioP2;P2;SDS_P1;SDS_P2;PMS_P1;PMS_P2;Temp;Humidity;BMP_temperature;BMP_pressure;BME280_temperature;BME280_humidity;BME280_pressure;Samples;Min_cycle;Max_cycle;Signal;HPM_P1;HPM_P2
2021/08/19 00:01:06;;;;;;;5.88;2.97;;;29.90;97.80;;;;;;4162282;28;20764;-67
2021/08/19 00:03:10;;;;;;;4.07;2.60;;;29.90;97.70;;;;;;4165104;28;20069;-65
2021/08/19 00:05:15;;;;;;;4.63;2.75;;;29.90;97.80;;;;;;4162930;28;20063;-67
2021/08/19 00:07:20;;;;;;;5.13;2.88;;;29.90;98.00;;;;;;4180156;28;20630;-66
2021/08/19 00:09:24;;;;;;;4.45;2.50;;;29.90;97.80;;;;;;4164183;28;20359;-67
2021/08/19 00:11:28;;;;;;;4.68;2.80;;;30.00;97.60;;;;;;4166256;28;20046;-67
2021/08/19 00:13:34;;;;;;;4.40;2.65;;;30.00;97.40;;;;;;4177078;28;20069;-67
2021/08/19 00:15:38;;;;;;;4.68;2.47;;;30.10;97.50;;;;;;4164659;28;20104;-67
2021/08/19 00:17:42;;;;;;;4.07;2.10;;;30.10;97.50;;;;;;4158851;28;20053;-67
2021/08/19 00:19:47;;;;;;;6.35;2.65;;;30.20;97.40;;;;;;4157620;28;20053;-67
2021/08/19 00:21:51;;;;;;;3.45;2.58;;;30.20;97.20;;;;;;4156661;28;20049;-67
2021/08/19 00:23:58;;;;;;;5.38;2.58;;;30.20;97.10;;;;;;4161064;28;20409;-67
2021/08/19 00:26:04;;;;;;;3.22;2.42;;;30.30;97.30;;;;;;4158507;28;20457;-68
2021/08/19 00:28:08;;;;;;;5.55;2.95;;;30.30;97.20;;;;;;4155693;28;20067;-66
2021/08/19 00:30:13;;;;;;;5.93;3.10;;;30.40;97.00;;;;;;4158558;28;20132;-68
2021/08/19 00:32:18;;;;;;;5.70;3.25;;;30.40;97.00;;;;;;4173361;28;20037;-68
2021/08/19 00:34:23;;;;;;;5.47;3.10;;;30.50;96.90;;;;;;4160277;28;20046;-67
2021/08/19 00:36:27;;;;;;;5.65;3.17;;;30.50;96.70;;;;;;4157735;28;20049;-67
2021/08/19 00:38:34;;;;;;;5.70;3.38;;;30.50;96.50;;;;;;4162112;28;20551;-67
2021/08/19 00:40:39;;;;;;;8.32;3.50;;;30.50;96.50;;;;;;4160179;28;20084;-68
2021/08/19 00:42:43;;;;;;;6.00;3.00;;;30.50;96.60;;;;;;4155762;28;20084;-67
2021/08/19 00:44:48;;;;;;;4.43;3.20;;;30.60;96.70;;;;;;4155477;28;20049;-67
2021/08/19 00:46:53;;;;;;;6.47;3.28;;;30.60;96.60;;;;;;4159820;28;20046;-67
2021/08/19 00:49:09;;;;;;;5.30;3.35;;;30.60;96.30;;;;;;4162509;28;20037;-67
2021/08/19 00:51:15;;;;;;;8.52;3.50;;;30.60;96.10;;;;;;4163363;28;20176;-67
2021/08/19 00:53:19;;;;;;;6.03;3.30;;;30.70;96.00;;;;;;4161492;28;20049;-67
2021/08/19 00:55:24;;;;;;;5.15;3.10;;;30.80;96.00;;;;;;4160742;28;20049;-66
2021/08/19 00:57:28;;;;;;;5.47;3.40;;;30.80;95.90;;;;;;4160154;28;20053;-68
2021/08/19 00:59:37;;;;;;;8.43;3.63;;;30.90;96.00;;;;;;4160058;28;20946;-67
2021/08/19 01:01:42;;;;;;;4.53;2.80;;;30.90;95.90;;;;;;4161625;28;20041;-68
2021/08/19 01:03:47;;;;;;;10.38;3.88;;;31.00;95.80;;;;;;4158699;28;20042;-68
2021/08/19 01:05:53;;;;;;;7.75;3.40;;;31.10;95.60;;;;;;4160205;28;20531;-68
2021/08/19 01:08:00;;;;;;;5.38;3.60;;;31.00;95.60;;;;;;4158049;28;20042;-68
2021/08/19 01:10:05;;;;;;;6.38;3.13;;;31.00;95.50;;;;;;4155900;28;20060;-67
2021/08/19 01:12:11;;;;;;;8.20;3.22;;;31.10;95.40;;;;;;4157925;28;20045;-67
2021/08/19 01:14:16;;;;;;;4.00;2.90;;;31.10;95.30;;;;;;4160495;28;20436;-67
2021/08/19 01:16:21;;;;;;;4.25;2.70;;;31.20;95.10;;;;;;4143701;28;20054;-68
2021/08/19 01:18:35;;;;;;;5.43;3.25;;;31.20;95.20;;;;;;4144511;28;20127;-68
2021/08/19 01:20:40;;;;;;;6.57;2.83;;;31.30;95.20;;;;;;4144996;28;20042;-68
2021/08/19 01:22:46;;;;;;;4.75;3.05;;;31.40;95.10;;;;;;4143985;28;20065;-68
2021/08/19 01:24:51;;;;;;;6.80;3.10;;;31.40;94.90;;;;;;4143699;28;20084;-67
2021/08/19 01:26:56;;;;;;;5.28;2.60;;;31.50;94.90;;;;;;4142390;28;20594;-67
2021/08/19 01:29:04;;;;;;;6.03;3.28;;;31.50;94.80;;;;;;4142517;28;20042;-67
2021/08/19 01:31:15;;;;;;;6.63;3.47;;;31.50;94.70;;;;;;4143068;28;20052;-67
2021/08/19 01:33:24;;;;;;;5.05;3.28;;;31.60;94.50;;;;;;4128411;28;20053;-67
2021/08/19 01:35:30;;;;;;;4.72;2.92;;;31.60;94.70;;;;;;4140990;28;20503;-67
2021/08/19 01:37:35;;;;;;;5.15;2.90;;;31.70;94.70;;;;;;4143041;28;20485;-67
2021/08/19 01:39:40;;;;;;;4.07;2.83;;;31.70;94.30;;;;;;4143176;28;20084;-67
2021/08/19 01:41:45;;;;;;;6.22;3.60;;;31.80;94.30;;;;;;4143658;28;20057;-67
2021/08/19 01:43:50;;;;;;;6.57;3.10;;;31.80;94.00;;;;;;4142474;28;20050;-67
2021/08/19 01:46:00;;;;;;;6.15;2.83;;;31.80;93.90;;;;;;4126556;28;20034;-67
2021/08/19 01:48:09;;;;;;;5.57;3.30;;;31.90;93.80;;;;;;4135809;28;20224;-67
2021/08/19 01:50:14;;;;;;;5.57;3.00;;;31.90;93.90;;;;;;4155960;28;20077;-68
2021/08/19 01:52:19;;;;;;;6.47;3.35;;;32.00;94.00;;;;;;4152845;28;20508;-68
2021/08/19 01:54:25;;;;;;;5.30;3.53;;;32.00;93.70;;;;;;4158865;28;20069;-66
2021/08/19 01:56:32;;;;;;;5.50;3.50;;;32.00;93.70;;;;;;4154344;28;20041;-67
2021/08/19 01:58:37;;;;;;;7.70;3.47;;;32.00;93.70;;;;;;4148338;28;20054;-67
2021/08/19 02:00:43;;;;;;;8.40;3.47;;;32.10;93.70;;;;;;4157299;28;20605;-66
2021/08/19 02:02:48;;;;;;;8.05;3.30;;;32.20;93.70;;;;;;4159660;28;20081;-67
2021/08/19 02:04:54;;;;;;;5.03;3.08;;;32.20;93.60;;;;;;4143013;28;20050;-68
2021/08/19 02:06:59;;;;;;;5.30;2.90;;;32.30;93.70;;;;;;4160196;28;20069;-67
2021/08/19 02:09:06;;;;;;;4.50;3.40;;;32.30;93.80;;;;;;4159409;28;20052;-67
2021/08/19 02:11:11;;;;;;;8.40;2.97;;;32.30;93.50;;;;;;4145580;28;20137;-68
2021/08/19 02:13:16;;;;;;;4.70;2.95;;;32.40;93.80;;;;;;4143321;28;20053;-68
2021/08/19 02:15:22;;;;;;;5.05;2.97;;;32.40;93.30;;;;;;4161939;28;20053;-69
2021/08/19 02:17:27;;;;;;;5.53;3.00;;;32.50;93.20;;;;;;4162382;28;20073;-68
2021/08/19 02:19:32;;;;;;;6.93;3.25;;;32.60;92.60;;;;;;4162738;28;20052;-69
2021/08/19 02:21:37;;;;;;;6.43;3.30;;;32.60;92.70;;;;;;4158462;28;20050;-69
2021/08/19 02:23:42;;;;;;;4.53;3.50;;;32.70;92.60;;;;;;4164304;28;20085;-69
2021/08/19 02:25:47;;;;;;;6.40;3.38;;;32.70;92.60;;;;;;4163203;28;20053;-68
2021/08/19 02:27:52;;;;;;;6.00;3.95;;;32.80;92.40;;;;;;4163591;28;20527;-68
2021/08/19 02:29:57;;;;;;;7.50;3.90;;;32.80;92.00;;;;;;4164118;28;20080;-70
2021/08/19 02:32:08;;;;;;;7.35;3.92;;;32.90;92.00;;;;;;4165333;28;20053;-70
2021/08/19 02:34:12;;;;;;;7.90;3.85;;;32.90;91.80;;;;;;4165329;28;20538;-69
2021/08/19 02:36:18;;;;;;;5.70;3.53;;;32.90;91.50;;;;;;4160070;28;20049;-68
2021/08/19 02:38:22;;;;;;;5.85;3.40;;;33.00;91.50;;;;;;4159497;28;20053;-68
2021/08/19 02:40:28;;;;;;;7.32;3.90;;;33.00;91.60;;;;;;4160537;28;20058;-67
2021/08/19 02:42:33;;;;;;;6.22;3.72;;;33.10;91.80;;;;;;4160994;28;20052;-69
2021/08/19 02:44:39;;;;;;;5.57;3.65;;;33.10;91.50;;;;;;4158511;28;20128;-66
2021/08/19 02:46:43;;;;;;;7.68;4.28;;;33.20;91.80;;;;;;4156798;28;20041;-68
2021/08/19 02:48:48;;;;;;;5.13;3.75;;;33.20;91.10;;;;;;4159044;28;20274;-68
2021/08/19 02:50:54;;;;;;;6.95;3.95;;;33.20;91.10;;;;;;4157332;28;20045;-67
2021/08/19 02:52:58;;;;;;;5.38;3.47;;;33.30;90.90;;;;;;4159569;28;20044;-69
2021/08/19 02:55:04;;;;;;;5.53;3.67;;;33.30;91.10;;;;;;4159737;28;20045;-68
2021/08/19 02:57:09;;;;;;;5.78;3.67;;;33.40;90.80;;;;;;4160383;28;20285;-68
2021/08/19 02:59:14;;;;;;;6.28;3.53;;;33.50;90.20;;;;;;4152342;28;20144;-68
2021/08/19 03:01:22;;;;;;;6.07;3.63;;;33.40;89.90;;;;;;4156331;28;20108;-68
2021/08/19 03:03:27;;;;;;;5.95;3.63;;;33.50;89.30;;;;;;4157632;28;20513;-68
2021/08/19 03:05:33;;;;;;;6.65;3.58;;;33.50;89.90;;;;;;4150560;28;20034;-68
2021/08/19 03:07:38;;;;;;;6.05;3.33;;;33.50;89.00;;;;;;4155714;28;20061;-68
2021/08/19 03:09:43;;;;;;;6.18;3.63;;;33.60;89.40;;;;;;4159858;28;20064;-69
2021/08/19 03:11:49;;;;;;;4.93;3.25;;;33.70;88.60;;;;;;4157252;28;20400;-69
2021/08/19 03:13:53;;;;;;;7.72;3.50;;;33.70;89.20;;;;;;4159014;28;20532;-68
2021/08/19 03:15:59;;;;;;;8.48;3.85;;;33.80;87.90;;;;;;4156260;28;20089;-68
2021/08/19 03:18:05;;;;;;;6.78;3.95;;;33.80;88.50;;;;;;4154368;28;20045;-68
2021/08/19 03:20:11;;;;;;;6.53;3.63;;;33.90;88.50;;;;;;4157284;28;20092;-68
2021/08/19 03:22:16;;;;;;;7.80;3.70;;;33.90;89.00;;;;;;4158918;28;20045;-68
2021/08/19 03:24:22;;;;;;;5.13;3.70;;;34.00;88.20;;;;;;4159413;28;20049;-69
2021/08/19 03:26:26;;;;;;;6.40;3.80;;;34.00;88.50;;;;;;4156826;28;20042;-68
2021/08/19 03:28:32;;;;;;;4.95;3.53;;;34.10;88.20;;;;;;4156909;28;20049;-68
2021/08/19 03:30:38;;;;;;;6.13;3.83;;;34.10;86.30;;;;;;4163845;28;20041;-68
2021/08/19 03:32:43;;;;;;;9.93;4.38;;;34.10;86.20;;;;;;4157484;28;20539;-69
2021/08/19 03:34:47;;;;;;;8.02;3.92;;;34.20;87.30;;;;;;4159696;28;20164;-68
2021/08/19 03:36:54;;;;;;;6.18;4.07;;;34.20;87.90;;;;;;4157117;28;20049;-68
2021/08/19 03:38:59;;;;;;;6.57;4.30;;;34.20;88.70;;;;;;4153992;28;20095;-69
2021/08/19 03:41:04;;;;;;;6.75;3.80;;;34.20;88.00;;;;;;4159189;28;20096;-68
2021/08/19 03:43:10;;;;;;;7.43;4.15;;;34.30;87.50;;;;;;4154909;28;20061;-69
2021/08/19 03:45:19;;;;;;;5.97;3.58;;;34.40;87.20;;;;;;4163069;28;20065;-68
2021/08/19 03:47:29;;;;;;;8.65;3.97;;;34.50;86.50;;;;;;4161509;28;20053;-68
2021/08/19 03:49:36;;;;;;;6.82;3.78;;;34.50;86.90;;;;;;4162268;28;20049;-68
2021/08/19 03:51:41;;;;;;;5.95;3.70;;;34.60;87.20;;;;;;4164772;28;20112;-68
2021/08/19 03:53:54;;;;;;;5.07;4.10;;;34.60;87.10;;;;;;4165057;28;20041;-68
2021/08/19 03:55:59;;;;;;;5.60;3.90;;;34.60;86.70;;;;;;4163514;28;20042;-68
2021/08/19 03:58:06;;;;;;;7.10;3.92;;;34.60;85.60;;;;;;4163808;28;20066;-68
2021/08/19 04:00:11;;;;;;;6.93;4.35;;;34.70;86.10;;;;;;4164505;28;20077;-69
2021/08/19 04:02:15;;;;;;;8.73;4.28;;;34.70;86.10;;;;;;4164056;28;20132;-69
2021/08/19 04:04:20;;;;;;;7.55;3.70;;;34.70;85.50;;;;;;4160116;28;20045;-68
2021/08/19 04:06:25;;;;;;;5.97;3.63;;;34.70;85.70;;;;;;4165070;28;20041;-68
2021/08/19 04:08:30;;;;;;;9.82;4.13;;;34.80;85.60;;;;;;4165404;28;20041;-68
2021/08/19 04:10:35;;;;;;;8.23;3.90;;;34.90;85.60;;;;;;4163427;28;20500;-68
2021/08/19 04:12:40;;;;;;;4.50;3.38;;;34.90;85.50;;;;;;4165191;28;20076;-69
2021/08/19 04:14:45;;;;;;;6.78;3.97;;;35.00;85.10;;;;;;4161320;28;20045;-68
2021/08/19 04:16:49;;;;;;;5.20;3.80;;;35.00;83.50;;;;;;4165929;28;20100;-68
2021/08/19 04:18:54;;;;;;;7.28;4.00;;;35.00;83.40;;;;;;4165130;28;20451;-68
2021/08/19 04:20:59;;;;;;;5.53;3.50;;;35.10;83.40;;;;;;4167290;28;20053;-68
2021/08/19 04:23:03;;;;;;;5.70;3.97;;;35.20;83.80;;;;;;4161644;28;20379;-69
2021/08/19 04:25:09;;;;;;;8.75;4.22;;;35.20;83.70;;;;;;4167592;28;20046;-70
2021/08/19 04:27:14;;;;;;;6.60;3.75;;;35.30;83.30;;;;;;4166986;28;20060;-70
2021/08/19 04:29:18;;;;;;;7.22;4.05;;;35.40;83.00;;;;;;4166088;28;20053;-71
2021/08/19 04:31:23;;;;;;;5.95;3.88;;;35.30;82.30;;;;;;4162251;28;20495;-69
2021/08/19 04:33:29;;;;;;;4.88;3.63;;;35.20;82.10;;;;;;4156707;28;20466;-70
2021/08/19 04:35:33;;;;;;;7.22;3.85;;;35.20;81.70;;;;;;4165661;28;20330;-69
2021/08/19 04:37:38;;;;;;;5.47;3.80;;;35.00;82.40;;;;;;4168652;28;20038;-69
2021/08/19 04:39:43;;;;;;;5.72;3.60;;;35.00;82.70;;;;;;4160132;28;20046;-69
2021/08/19 04:41:48;;;;;;;7.07;3.80;;;35.00;83.00;;;;;;4153543;28;20049;-67
2021/08/19 04:43:53;;;;;;;6.82;3.88;;;35.20;82.60;;;;;;4158947;28;20037;-68
2021/08/19 04:45:57;;;;;;;6.07;3.65;;;35.40;80.50;;;;;;4157123;28;20475;-67
2021/08/19 04:48:02;;;;;;;7.20;3.70;;;35.40;80.30;;;;;;4158815;28;20507;-68
2021/08/19 04:50:08;;;;;;;6.85;3.90;;;35.50;80.10;;;;;;4163085;28;20048;-68
2021/08/19 04:52:12;;;;;;;5.88;3.72;;;35.50;80.00;;;;;;4162931;28;20990;-67
2021/08/19 04:54:17;;;;;;;7.97;4.50;;;35.50;79.40;;;;;;4162139;28;20152;-65
2021/08/19 04:56:27;;;;;;;8.48;3.78;;;35.60;79.90;;;;;;4162633;28;20085;-68
2021/08/19 04:58:32;;;;;;;6.25;3.28;;;35.70;79.80;;;;;;4165908;28;21161;-68
2021/08/19 05:00:37;;;;;;;5.80;3.20;;;35.90;78.40;;;;;;4158286;28;20080;-70
2021/08/19 05:02:41;;;;;;;4.28;2.80;;;35.90;77.20;;;;;;4164108;28;20061;-68
2021/08/19 05:04:46;;;;;;;3.67;2.90;;;35.80;75.90;;;;;;4162261;28;22003;-68
2021/08/19 05:06:51;;;;;;;4.65;2.90;;;35.80;76.60;;;;;;4161369;28;20037;-69
2021/08/19 05:08:56;;;;;;;5.75;3.53;;;35.70;76.80;;;;;;4178030;28;20079;-68
2021/08/19 05:11:00;;;;;;;5.15;2.90;;;35.90;78.40;;;;;;4162307;28;20129;-68
2021/08/19 05:13:05;;;;;;;6.90;3.08;;;36.00;77.50;;;;;;4158984;28;20109;-68
2021/08/19 05:15:10;;;;;;;5.05;2.65;;;36.10;74.00;;;;;;4168015;28;20065;-69
2021/08/19 05:17:14;;;;;;;4.43;2.60;;;36.10;73.60;;;;;;4159908;28;20128;-68
2021/08/19 05:19:19;;;;;;;8.52;2.88;;;36.20;72.10;;;;;;4166730;28;20060;-69
2021/08/19 05:21:24;;;;;;;3.50;2.40;;;36.20;72.70;;;;;;4160752;28;20041;-68
2021/08/19 05:23:28;;;;;;;5.03;3.40;;;36.20;72.50;;;;;;4167669;28;20478;-67
2021/08/19 05:25:33;;;;;;;3.83;2.80;;;36.20;71.80;;;;;;4151635;28;20073;-67
2021/08/19 05:27:37;;;;;;;5.78;3.70;;;36.20;72.40;;;;;;4183796;28;20041;-68
2021/08/19 05:29:42;;;;;;;3.63;2.53;;;36.20;72.40;;;;;;4168049;28;20061;-69
2021/08/19 05:31:46;;;;;;;3.92;2.70;;;36.20;72.70;;;;;;4165395;28;20440;-68
2021/08/19 05:33:51;;;;;;;4.72;2.60;;;36.30;73.50;;;;;;4166160;28;20103;-68
2021/08/19 05:35:55;;;;;;;4.07;2.63;;;36.40;72.70;;;;;;4167697;28;20096;-68
2021/08/19 05:38:00;;;;;;;5.88;2.90;;;36.50;71.60;;;;;;4165804;28;20407;-69
2021/08/19 05:40:05;;;;;;;4.38;2.72;;;36.50;71.50;;;;;;4159636;28;20052;-67
2021/08/19 05:42:09;;;;;;;8.43;3.00;;;36.50;71.30;;;;;;4162075;28;20440;-69
2021/08/19 05:44:14;;;;;;;3.63;2.65;;;36.60;71.60;;;;;;4158897;28;20080;-67
2021/08/19 05:46:18;;;;;;;4.30;2.83;;;36.60;71.40;;;;;;4163067;28;20076;-68
2021/08/19 05:48:23;;;;;;;5.47;3.00;;;36.60;71.50;;;;;;4160405;28;20053;-67
2021/08/19 05:50:29;;;;;;;8.57;3.00;;;36.70;71.00;;;;;;4160611;28;20050;-67
2021/08/19 05:52:49;;;;;;;5.60;3.00;;;36.80;70.00;;;;;;4171178;28;20040;-71
2021/08/19 05:55:22;;;;;;;3.53;2.78;;;36.80;70.00;;;;;;4170052;28;20041;-68
2021/08/19 05:57:26;;;;;;;4.30;2.70;;;36.90;70.60;;;;;;4166548;28;20045;-69
2021/08/19 05:59:40;;;;;;;5.75;2.90;;;36.80;70.30;;;;;;4162147;28;20064;-70
2021/08/19 06:01:46;;;;;;;4.40;3.20;;;36.80;71.20;;;;;;4162513;28;20042;-69
2021/08/19 06:03:51;;;;;;;4.95;2.63;;;36.80;71.30;;;;;;4160543;28;20034;-67
2021/08/19 06:05:55;;;;;;;3.92;2.70;;;36.80;72.10;;;;;;4160794;28;20101;-68
2021/08/19 06:08:00;;;;;;;4.40;2.90;;;36.80;71.10;;;;;;4159045;28;20390;-68
2021/08/19 06:10:05;;;;;;;4.82;2.95;;;36.80;71.30;;;;;;4161812;28;20051;-69
2021/08/19 06:12:09;;;;;;;4.05;2.75;;;36.50;71.90;;;;;;4160544;28;20530;-68
2021/08/19 06:14:14;;;;;;;4.13;2.70;;;36.40;72.60;;;;;;4157601;28;20069;-67
2021/08/19 06:16:18;;;;;;;5.30;2.88;;;36.30;72.70;;;;;;4158561;28;20073;-67
2021/08/19 06:18:23;;;;;;;7.90;3.25;;;36.20;72.80;;;;;;4160009;28;20038;-68
2021/08/19 06:20:27;;;;;;;5.30;2.95;;;36.20;73.10;;;;;;4159940;28;20065;-69
2021/08/19 06:22:31;;;;;;;4.95;2.72;;;36.20;73.70;;;;;;4160215;28;20122;-67
2021/08/19 06:24:36;;;;;;;3.67;2.60;;;36.10;73.90;;;;;;4160598;28;20172;-68
2021/08/19 06:26:41;;;;;;;5.82;2.90;;;36.00;73.60;;;;;;4163354;28;20085;-68
2021/08/19 06:28:45;;;;;;;5.53;2.88;;;36.00;73.60;;;;;;4162617;28;20050;-67
2021/08/19 06:30:50;;;;;;;4.25;3.00;;;35.90;73.30;;;;;;4143598;28;20500;-68
2021/08/19 06:32:55;;;;;;;7.57;3.40;;;35.80;72.30;;;;;;4162638;28;20045;-68
2021/08/19 06:35:00;;;;;;;4.72;3.28;;;35.90;73.20;;;;;;4159435;28;20360;-70
2021/08/19 06:37:06;;;;;;;6.50;3.33;;;36.10;71.50;;;;;;4160313;28;20046;-69
2021/08/19 06:39:10;;;;;;;6.05;3.03;;;36.10;71.10;;;;;;4162400;28;20107;-68
2021/08/19 06:41:19;;;;;;;3.55;2.60;;;36.00;71.80;;;;;;4167854;28;20041;-68
2021/08/19 06:43:25;;;;;;;5.82;3.08;;;36.00;73.50;;;;;;4160493;28;20532;-69
2021/08/19 06:45:30;;;;;;;6.85;3.10;;;36.00;73.00;;;;;;4160306;28;20049;-69
2021/08/19 06:47:34;;;;;;;3.75;2.88;;;35.90;73.30;;;;;;4158335;28;20038;-68
2021/08/19 06:49:40;;;;;;;6.32;3.08;;;36.00;72.90;;;;;;4159392;28;20042;-69
2021/08/19 06:51:44;;;;;;;6.30;2.95;;;36.00;71.50;;;;;;4162630;28;20073;-68
2021/08/19 06:53:49;;;;;;;4.60;2.83;;;36.10;69.50;;;;;;4164961;28;20390;-68
2021/08/19 06:55:54;;;;;;;5.70;2.70;;;36.20;69.00;;;;;;4160313;28;20398;-68
2021/08/19 06:57:59;;;;;;;8.02;3.03;;;36.20;68.70;;;;;;4165855;28;20041;-68
2021/08/19 07:00:06;;;;;;;5.30;3.10;;;36.20;70.60;;;;;;4159234;28;20047;-70
2021/08/19 07:02:14;;;;;;;8.10;3.13;;;36.20;72.00;;;;;;4159369;28;20528;-67
2021/08/19 07:04:23;;;;;;;6.85;2.97;;;36.30;71.70;;;;;;4164381;28;20140;-66
2021/08/19 07:06:31;;;;;;;5.35;3.00;;;36.30;71.50;;;;;;4161723;28;20121;-68
2021/08/19 07:08:36;;;;;;;4.15;2.92;;;36.50;71.60;;;;;;4165350;28;20272;-68
2021/08/19 07:10:40;;;;;;;3.88;2.72;;;36.50;71.80;;;;;;4159907;28;20449;-69
2021/08/19 07:12:45;;;;;;;3.72;2.85;;;36.50;72.60;;;;;;4161024;28;20041;-68
2021/08/19 07:14:50;;;;;;;6.35;2.83;;;36.50;72.10;;;;;;4158490;28;20144;-68
2021/08/19 07:16:54;;;;;;;4.43;2.72;;;36.40;72.60;;;;;;4158526;28;20049;-68
2021/08/19 07:18:58;;;;;;;5.80;2.90;;;36.30;72.10;;;;;;4166046;28;20053;-69
2021/08/19 07:21:03;;;;;;;4.28;3.38;;;36.30;73.60;;;;;;4156912;28;20484;-68
2021/08/19 07:23:07;;;;;;;4.93;3.03;;;36.50;73.30;;;;;;4162724;28;20056;-66
2021/08/19 07:25:13;;;;;;;6.88;2.75;;;36.50;72.70;;;;;;4161408;28;20088;-69
2021/08/19 07:27:18;;;;;;;5.25;2.95;;;36.50;73.00;;;;;;4163894;28;20124;-68
2021/08/19 07:29:23;;;;;;;4.20;2.60;;;36.60;73.30;;;;;;4165430;28;20056;-68
2021/08/19 07:31:27;;;;;;;5.22;3.20;;;36.70;73.60;;;;;;4166443;28;20354;-68
2021/08/19 07:33:32;;;;;;;4.63;2.80;;;36.70;74.10;;;;;;4163918;28;20288;-67
2021/08/19 07:35:37;;;;;;;4.97;3.00;;;36.70;73.90;;;;;;4153592;28;20125;-68
2021/08/19 07:37:49;;;;;;;6.30;3.20;;;36.50;74.00;;;;;;4162858;28;20042;-68
2021/08/19 07:39:54;;;;;;;7.15;3.10;;;36.50;74.00;;;;;;4163934;28;20061;-68
2021/08/19 07:42:00;;;;;;;3.88;2.83;;;36.50;74.20;;;;;;4161856;28;20111;-68
2021/08/19 07:44:06;;;;;;;5.10;3.05;;;36.40;73.50;;;;;;4163229;28;20493;-67
2021/08/19 07:46:12;;;;;;;4.82;3.35;;;36.40;72.60;;;;;;4162585;28;20108;-68
2021/08/19 07:48:16;;;;;;;5.18;2.70;;;36.40;72.60;;;;;;4148037;28;20350;-68
2021/08/19 07:50:23;;;;;;;3.50;2.60;;;36.30;72.40;;;;;;4163287;28;20042;-69
2021/08/19 07:52:28;;;;;;;5.28;2.92;;;36.30;72.00;;;;;;4168259;28;20049;-67
2021/08/19 07:54:33;;;;;;;5.28;3.40;;;36.40;72.40;;;;;;4162672;28;20038;-69
2021/08/19 07:56:37;;;;;;;5.80;3.17;;;36.40;72.50;;;;;;4166422;28;20515;-67
2021/08/19 07:58:41;;;;;;;4.65;2.85;;;36.40;72.90;;;;;;4165183;28;20054;-68
2021/08/19 08:00:46;;;;;;;3.85;2.70;;;36.40;73.30;;;;;;4169693;28;20572;-67
2021/08/19 08:02:51;;;;;;;4.55;2.70;;;36.40;74.60;;;;;;4173406;28;20045;-68
2021/08/19 08:04:56;;;;;;;5.75;3.10;;;36.40;74.40;;;;;;4161033;28;20048;-68
2021/08/19 08:07:02;;;;;;;6.30;3.10;;;36.30;74.90;;;;;;4154280;28;20152;-67
2021/08/19 08:09:07;;;;;;;4.53;2.88;;;36.20;75.00;;;;;;4161648;28;20565;-67
2021/08/19 08:11:11;;;;;;;5.53;3.13;;;36.30;75.30;;;;;;4165165;28;20037;-69
2021/08/19 08:13:15;;;;;;;5.68;3.33;;;36.30;75.70;;;;;;4167137;28;20341;-68
2021/08/19 08:15:19;;;;;;;6.53;3.40;;;36.30;75.80;;;;;;4165728;28;20045;-67
2021/08/19 08:17:24;;;;;;;6.60;3.72;;;36.30;75.80;;;;;;4154576;28;20089;-68
2021/08/19 08:19:29;;;;;;;9.70;5.32;;;36.30;75.60;;;;;;4159273;28;20427;-68
2021/08/19 08:21:36;;;;;;;11.98;7.75;;;36.30;76.00;;;;;;4161560;28;20071;-67
2021/08/19 08:23:42;;;;;;;10.82;7.75;;;36.30;76.40;;;;;;4165452;28;20064;-68
2021/08/19 08:25:48;;;;;;;11.60;8.45;;;36.30;76.70;;;;;;4163325;28;20621;-69
2021/08/19 08:28:05;;;;;;;14.32;7.85;;;36.30;76.90;;;;;;4161202;28;20040;-69
2021/08/19 08:30:11;;;;;;;9.95;6.70;;;36.30;76.60;;;;;;4151102;28;20053;-67
2021/08/19 08:32:16;;;;;;;8.77;5.43;;;36.30;76.70;;;;;;4158810;28;20424;-68
2021/08/19 08:34:23;;;;;;;9.02;5.15;;;36.30;76.40;;;;;;4157360;28;20038;-69
2021/08/19 08:36:28;;;;;;;7.70;4.53;;;36.30;76.00;;;;;;4160596;28;20451;-68
2021/08/19 08:38:33;;;;;;;6.05;3.70;;;36.30;76.10;;;;;;4156476;28;20067;-68
2021/08/19 08:40:39;;;;;;;7.20;3.88;;;36.40;76.50;;;;;;4157919;28;20058;-67
2021/08/19 08:42:45;;;;;;;5.68;3.63;;;36.40;77.10;;;;;;4159462;28;20049;-67
2021/08/19 08:44:50;;;;;;;10.68;3.90;;;36.30;77.40;;;;;;4159586;28;20412;-69
2021/08/19 08:46:55;;;;;;;5.18;3.70;;;36.30;77.60;;;;;;4156372;28;20038;-70
2021/08/19 08:49:00;;;;;;;7.78;3.88;;;36.20;77.90;;;;;;4161061;28;20076;-68
2021/08/19 08:51:05;;;;;;;5.57;4.07;;;36.20;78.30;;;;;;4161653;28;20083;-67
2021/08/19 08:53:11;;;;;;;6.55;4.38;;;36.10;78.40;;;;;;4155813;28;20562;-66
2021/08/19 08:55:16;;;;;;;7.43;3.63;;;36.10;78.40;;;;;;4158296;28;20139;-67
2021/08/19 08:57:20;;;;;;;7.57;3.70;;;36.10;78.50;;;;;;4162112;28;20046;-68
2021/08/19 08:59:25;;;;;;;6.25;3.55;;;36.00;78.70;;;;;;4164009;28;20536;-67
2021/08/19 09:01:32;;;;;;;10.52;4.10;;;36.00;78.80;;;;;;4158961;28;20060;-70
2021/08/19 09:03:37;;;;;;;6.25;4.03;;;36.00;79.00;;;;;;4160919;28;20161;-67
2021/08/19 09:05:46;;;;;;;6.13;3.88;;;36.00;79.60;;;;;;4153699;28;20038;-70
2021/08/19 09:07:54;;;;;;;8.30;4.00;;;35.90;79.80;;;;;;4161395;28;20045;-70
2021/08/19 09:09:59;;;;;;;7.13;3.67;;;35.90;79.10;;;;;;4161300;28;20049;-70
2021/08/19 09:12:08;;;;;;;4.38;3.40;;;35.80;79.60;;;;;;4143156;28;20058;-70
2021/08/19 09:14:20;;;;;;;5.68;3.80;;;35.80;79.70;;;;;;4144171;28;20081;-69
2021/08/19 09:16:24;;;;;;;6.45;3.85;;;35.80;80.20;;;;;;4143419;28;20046;-69
2021/08/19 09:18:32;;;;;;;7.35;3.80;;;35.80;80.50;;;;;;4144303;28;20037;-68
2021/08/19 09:20:39;;;;;;;7.80;3.60;;;35.90;80.60;;;;;;4127209;28;20133;-68
2021/08/19 09:22:55;;;;;;;7.30;3.95;;;35.80;80.50;;;;;;4144437;28;20648;-69
2021/08/19 09:24:59;;;;;;;5.43;3.88;;;35.80;80.80;;;;;;4144104;28;20049;-68
2021/08/19 09:27:11;;;;;;;7.13;4.10;;;35.80;81.10;;;;;;4115360;28;20118;-68
2021/08/19 09:29:19;;;;;;;5.95;3.83;;;35.80;81.30;;;;;;4143889;28;20050;-68
2021/08/19 09:31:23;;;;;;;6.10;4.05;;;35.80;81.40;;;;;;4141265;28;20030;-68
2021/08/19 09:33:29;;;;;;;6.57;3.65;;;35.80;81.50;;;;;;4143446;28;20042;-69
2021/08/19 09:35:34;;;;;;;5.15;3.70;;;35.70;81.30;;;;;;4142880;28;20088;-69
2021/08/19 09:37:39;;;;;;;6.05;3.58;;;35.80;81.30;;;;;;4143966;28;20061;-70
2021/08/19 09:39:55;;;;;;;5.65;3.60;;;35.70;81.30;;;;;;4117958;28;20104;-70
2021/08/19 09:42:00;;;;;;;7.50;3.75;;;35.80;81.50;;;;;;4120045;28;20087;-69
2021/08/19 09:44:05;;;;;;;5.65;3.95;;;35.60;81.20;;;;;;4118397;28;20307;-69
2021/08/19 09:46:13;;;;;;;6.38;3.65;;;35.50;81.20;;;;;;4121034;28;20134;-69
2021/08/19 09:48:17;;;;;;;6.03;3.95;;;35.40;81.20;;;;;;4118839;28;20121;-69
2021/08/19 09:50:22;;;;;;;7.25;4.10;;;35.50;81.20;;;;;;4120983;28;20050;-70
2021/08/19 09:52:27;;;;;;;7.95;4.35;;;35.40;81.30;;;;;;4117337;28;20042;-69
2021/08/19 09:54:36;;;;;;;5.93;3.85;;;35.30;81.20;;;;;;4118409;28;20059;-68
2021/08/19 09:56:41;;;;;;;8.15;3.97;;;35.30;81.40;;;;;;4115788;28;20061;-69
2021/08/19 09:58:45;;;;;;;7.88;4.25;;;35.30;81.50;;;;;;4115194;28;20042;-69
2021/08/19 10:00:50;;;;;;;8.98;4.35;;;35.30;81.20;;;;;;4115591;28;20522;-69
2021/08/19 10:02:55;;;;;;;5.40;3.97;;;35.30;81.60;;;;;;4111985;28;20043;-69
2021/08/19 10:05:00;;;;;;;6.00;3.80;;;35.20;81.90;;;;;;4121263;28;20436;-69
2021/08/19 10:07:04;;;;;;;5.93;3.65;;;35.20;82.10;;;;;;4116801;28;20145;-71
2021/08/19 10:09:09;;;;;;;6.95;3.88;;;35.20;82.30;;;;;;4122840;28;20069;-69
2021/08/19 10:11:14;;;;;;;6.47;3.90;;;35.20;82.40;;;;;;4148401;28;20281;-68
2021/08/19 10:13:19;;;;;;;7.63;3.90;;;35.20;83.00;;;;;;4156268;28;20556;-68
2021/08/19 10:15:25;;;;;;;7.93;4.05;;;35.20;83.20;;;;;;4157932;28;20420;-69
2021/08/19 10:17:29;;;;;;;7.35;4.03;;;35.20;83.30;;;;;;4159351;28;20107;-69
2021/08/19 10:19:41;;;;;;;6.97;4.38;;;35.10;83.60;;;;;;4159646;28;20046;-70
2021/08/19 10:21:50;;;;;;;6.65;4.45;;;35.10;83.60;;;;;;4143059;28;20050;-68
2021/08/19 10:23:55;;;;;;;14.85;5.28;;;35.20;83.90;;;;;;4157749;28;20057;-69
2021/08/19 10:26:05;;;;;;;6.65;3.97;;;35.10;84.10;;;;;;4127777;28;20052;-69
2021/08/19 10:28:16;;;;;;;6.38;3.83;;;35.00;85.10;;;;;;4159225;28;20561;-69
2021/08/19 10:30:22;;;;;;;8.50;4.75;;;34.90;85.70;;;;;;4161760;28;20080;-70
2021/08/19 10:32:31;;;;;;;6.72;4.32;;;34.90;85.70;;;;;;4153365;28;20524;-69
2021/08/19 10:34:57;;;;;;;7.13;4.82;;;34.90;85.90;;;;;;4150303;28;20069;-69
2021/08/19 10:37:02;;;;;;;11.15;5.18;;;34.90;85.90;;;;;;4154448;28;20081;-69
2021/08/19 10:39:18;;;;;;;9.90;5.80;;;34.90;85.60;;;;;;4153850;28;20133;-70
2021/08/19 10:41:32;;;;;;;9.00;5.50;;;34.80;85.40;;;;;;4153382;28;20289;-70
2021/08/19 10:44:05;;;;;;;15.32;7.18;;;34.80;86.30;;;;;;4157854;28;20050;-70
2021/08/19 10:46:11;;;;;;;9.23;6.82;;;34.70;86.90;;;;;;4149958;28;20041;-70
2021/08/19 10:48:23;;;;;;;12.68;7.47;;;34.60;87.00;;;;;;4149795;28;20085;-70
2021/08/19 10:50:30;;;;;;;11.65;6.93;;;34.60;87.10;;;;;;4154719;28;20046;-70
2021/08/19 10:52:34;;;;;;;10.18;6.50;;;34.60;87.20;;;;;;4157091;28;20030;-69
2021/08/19 10:54:41;;;;;;;9.02;5.68;;;34.50;87.10;;;;;;4160665;28;20042;-69